sensor_id;sensor_type;location;lat;lon;timestamp;pressure;altitude;pressure_sealevel;temperature;humidity
69318;BME280;56457;52.190;4.440;2022-08-03T00:00:53;101557.50;;;21.67;81.65
69318;BME280;56457;52.190;4.440;2022-08-03T00:01:53;101553.91;;;21.68;81.03
69318;BME280;56457;52.190;4.440;2022-08-03T00:02:54;101554.16;;;21.62;82.00
69318;BME280;56457;52.190;4.440;2022-08-03T00:03:54;101555.91;;;21.63;81.50
69318;BME280;56457;52.190;4.440;2022-08-03T00:04:55;101553.28;;;21.61;81.57
69318;BME280;56457;52.190;4.440;2022-08-03T00:05:55;101549.69;;;21.62;82.01
69318;BME280;56457;52.190;4.440;2022-08-03T00:06:55;101553.44;;;21.58;82.22
69318;BME280;56457;52.190;4.440;2022-08-03T00:07:56;101555.91;;;21.63;81.85
69318;BME280;56457;52.190;4.440;2022-08-03T00:08:56;101550.56;;;21.63;81.92
69318;BME280;56457;52.190;4.440;2022-08-03T00:09:56;101557.50;;;21.67;81.73
69318;BME280;56457;52.190;4.440;2022-08-03T00:10:57;101552.16;;;21.67;81.87
69318;BME280;56457;52.190;4.440;2022-08-03T00:11:58;101548.69;;;21.65;81.63
69318;BME280;56457;52.190;4.440;2022-08-03T00:12:58;101549.63;;;21.64;81.85
69318;BME280;56457;52.190;4.440;2022-08-03T00:13:59;101546.97;;;21.64;81.76
69318;BME280;56457;52.190;4.440;2022-08-03T00:14:59;101540.75;;;21.63;81.93
69318;BME280;56457;52.190;4.440;2022-08-03T00:15:59;101549.56;;;21.65;81.87
69318;BME280;56457;52.190;4.440;2022-08-03T00:17:00;101550.56;;;21.63;82.31
69318;BME280;56457;52.190;4.440;2022-08-03T00:18:00;101543.50;;;21.62;82.27
69318;BME280;56457;52.190;4.440;2022-08-03T00:19:01;101543.50;;;21.62;82.08
69318;BME280;56457;52.190;4.440;2022-08-03T00:20:02;101545.22;;;21.63;81.96
69318;BME280;56457;52.190;4.440;2022-08-03T00:21:03;101542.41;;;21.66;82.65
69318;BME280;56457;52.190;4.440;2022-08-03T00:22:04;101543.41;;;21.63;82.21
69318;BME280;56457;52.190;4.440;2022-08-03T00:23:04;101541.72;;;21.61;82.44
69318;BME280;56457;52.190;4.440;2022-08-03T00:24:05;101545.34;;;21.60;81.97
69318;BME280;56457;52.190;4.440;2022-08-03T00:25:06;101537.47;;;21.57;82.30
69318;BME280;56457;52.190;4.440;2022-08-03T00:26:07;101534.13;;;21.52;82.57
69318;BME280;56457;52.190;4.440;2022-08-03T00:27:07;101538.53;;;21.53;83.06
69318;BME280;56457;52.190;4.440;2022-08-03T00:28:08;101538.44;;;21.54;82.90
69318;BME280;56457;52.190;4.440;2022-08-03T00:29:08;101536.78;;;21.52;83.00
69318;BME280;56457;52.190;4.440;2022-08-03T00:30:09;101536.91;;;21.48;83.21
69318;BME280;56457;52.190;4.440;2022-08-03T00:31:10;101526.38;;;21.45;83.14
69318;BME280;56457;52.190;4.440;2022-08-03T00:32:10;101523.72;;;21.45;83.66
69318;BME280;56457;52.190;4.440;2022-08-03T00:33:10;101530.84;;;21.45;83.37
69318;BME280;56457;52.190;4.440;2022-08-03T00:34:11;101529.06;;;21.45;83.92
69318;BME280;56457;52.190;4.440;2022-08-03T00:35:11;101531.72;;;21.45;83.71
69318;BME280;56457;52.190;4.440;2022-08-03T00:36:11;101529.97;;;21.44;83.73
69318;BME280;56457;52.190;4.440;2022-08-03T00:37:12;101531.84;;;21.42;84.01
69318;BME280;56457;52.190;4.440;2022-08-03T00:38:13;101529.31;;;21.39;84.02
69318;BME280;56457;52.190;4.440;2022-08-03T00:39:13;101531.84;;;21.42;83.83
69318;BME280;56457;52.190;4.440;2022-08-03T00:40:15;101527.66;;;21.37;83.89
69318;BME280;56457;52.190;4.440;2022-08-03T00:41:16;101527.50;;;21.40;84.30
69318;BME280;56457;52.190;4.440;2022-08-03T00:42:16;101535.44;;;21.41;84.32
69318;BME280;56457;52.190;4.440;2022-08-03T00:43:16;101531.91;;;21.41;84.85
69318;BME280;56457;52.190;4.440;2022-08-03T00:44:17;101530.06;;;21.43;84.29
69318;BME280;56457;52.190;4.440;2022-08-03T00:45:21;101526.72;;;21.38;84.19
69318;BME280;56457;52.190;4.440;2022-08-03T00:46:22;101527.56;;;21.38;84.35
69318;BME280;56457;52.190;4.440;2022-08-03T00:47:22;101523.91;;;21.41;84.13
69318;BME280;56457;52.190;4.440;2022-08-03T00:48:23;101517.69;;;21.40;84.14
69318;BME280;56457;52.190;4.440;2022-08-03T00:49:24;101522.09;;;21.41;84.24
69318;BME280;56457;52.190;4.440;2022-08-03T00:50:26;101523.81;;;21.42;84.29
69318;BME280;56457;52.190;4.440;2022-08-03T00:51:27;101529.13;;;21.44;84.01
69318;BME280;56457;52.190;4.440;2022-08-03T00:52:27;101524.66;;;21.44;83.93
69318;BME280;56457;52.190;4.440;2022-08-03T00:53:28;101521.28;;;21.39;84.18
69318;BME280;56457;52.190;4.440;2022-08-03T00:54:29;101522.22;;;21.38;84.54
69318;BME280;56457;52.190;4.440;2022-08-03T00:55:29;101515.16;;;21.37;84.22
69318;BME280;56457;52.190;4.440;2022-08-03T00:56:30;101518.75;;;21.36;84.56
69318;BME280;56457;52.190;4.440;2022-08-03T00:57:31;101519.69;;;21.35;84.54
69318;BME280;56457;52.190;4.440;2022-08-03T00:58:32;101523.19;;;21.37;84.50
69318;BME280;56457;52.190;4.440;2022-08-03T00:59:32;101519.69;;;21.35;84.37
69318;BME280;56457;52.190;4.440;2022-08-03T01:00:34;101518.16;;;21.28;85.19
69318;BME280;56457;52.190;4.440;2022-08-03T01:01:37;101515.06;;;21.17;85.02
69318;BME280;56457;52.190;4.440;2022-08-03T01:02:38;101512.41;;;21.17;85.58
69318;BME280;56457;52.190;4.440;2022-08-03T01:03:40;101516.69;;;21.21;85.60
69318;BME280;56457;52.190;4.440;2022-08-03T01:04:40;101510.41;;;21.22;85.69
69318;BME280;56457;52.190;4.440;2022-08-03T01:05:52;101513.94;;;21.22;85.61
69318;BME280;56457;52.190;4.440;2022-08-03T01:06:59;101507.69;;;21.23;85.02
69318;BME280;56457;52.190;4.440;2022-08-03T01:08:27;101514.72;;;21.26;85.51
69318;BME280;56457;52.190;4.440;2022-08-03T01:10:23;101514.78;;;21.24;85.45
69318;BME280;56457;52.190;4.440;2022-08-03T01:11:18;101508.53;;;21.24;85.78
69318;BME280;56457;52.190;4.440;2022-08-03T01:12:45;101504.16;;;21.23;85.64
69318;BME280;56457;52.190;4.440;2022-08-03T01:14:05;101506.97;;;21.20;85.64
69318;BME280;56457;52.190;4.440;2022-08-03T01:16:43;101501.72;;;21.17;85.69
69318;BME280;56457;52.190;4.440;2022-08-03T01:18:02;101500.06;;;21.14;86.03
69318;BME280;56457;52.190;4.440;2022-08-03T01:20:45;101498.44;;;21.10;85.89
69318;BME280;56457;52.190;4.440;2022-08-03T01:23:48;101504.53;;;21.14;86.06
69318;BME280;56457;52.190;4.440;2022-08-03T01:25:02;101501.19;;;21.09;86.17
69318;BME280;56457;52.190;4.440;2022-08-03T01:26:20;101502.06;;;21.09;86.50
69318;BME280;56457;52.190;4.440;2022-08-03T01:27:57;101499.47;;;21.08;86.78
69318;BME280;56457;52.190;4.440;2022-08-03T01:30:30;101502.81;;;21.13;85.96
69318;BME280;56457;52.190;4.440;2022-08-03T01:31:40;101499.31;;;21.11;85.78
69318;BME280;56457;52.190;4.440;2022-08-03T01:33:04;101504.03;;;21.04;85.62
69318;BME280;56457;52.190;4.440;2022-08-03T01:34:08;101499.56;;;21.05;86.41
69318;BME280;56457;52.190;4.440;2022-08-03T01:35:13;101495.25;;;21.02;86.67
69318;BME280;56457;52.190;4.440;2022-08-03T01:36:15;101502.13;;;21.08;86.53
69318;BME280;56457;52.190;4.440;2022-08-03T01:37:21;101497.72;;;21.07;86.45
69318;BME280;56457;52.190;4.440;2022-08-03T01:38:32;101499.56;;;21.05;86.41
69318;BME280;56457;52.190;4.440;2022-08-03T01:39:34;101496.09;;;21.03;85.90
69318;BME280;56457;52.190;4.440;2022-08-03T01:40:39;101502.31;;;21.03;86.62
69318;BME280;56457;52.190;4.440;2022-08-03T01:41:52;101504.09;;;21.03;86.45
69318;BME280;56457;52.190;4.440;2022-08-03T01:42:56;101500.66;;;21.01;86.46
69318;BME280;56457;52.190;4.440;2022-08-03T01:44:02;101494.44;;;21.00;86.90
69318;BME280;56457;52.190;4.440;2022-08-03T01:45:06;101490.00;;;20.99;86.84
69318;BME280;56457;52.190;4.440;2022-08-03T01:46:09;101500.69;;;20.99;87.01
69318;BME280;56457;52.190;4.440;2022-08-03T01:47:11;101497.22;;;20.97;86.74
69318;BME280;56457;52.190;4.440;2022-08-03T01:48:11;101495.56;;;20.94;87.12
69318;BME280;56457;52.190;4.440;2022-08-03T01:49:15;101504.53;;;20.92;87.11
69318;BME280;56457;52.190;4.440;2022-08-03T01:50:20;101492.88;;;20.94;87.07
69318;BME280;56457;52.190;4.440;2022-08-03T01:51:21;101496.50;;;20.93;86.79
69318;BME280;56457;52.190;4.440;2022-08-03T01:52:22;101498.09;;;20.97;87.08
69318;BME280;56457;52.190;4.440;2022-08-03T01:53:24;101499.97;;;20.95;86.99
69318;BME280;56457;52.190;4.440;2022-08-03T01:54:26;101488.50;;;20.93;86.89
69318;BME280;56457;52.190;4.440;2022-08-03T01:55:29;101489.34;;;20.94;87.49
69318;BME280;56457;52.190;4.440;2022-08-03T01:56:31;101479.59;;;20.93;87.53
69318;BME280;56457;52.190;4.440;2022-08-03T01:57:32;101482.53;;;20.87;87.26
69318;BME280;56457;52.190;4.440;2022-08-03T01:58:35;101487.03;;;20.85;87.18
69318;BME280;56457;52.190;4.440;2022-08-03T01:59:37;101476.19;;;20.89;87.24
69318;BME280;56457;52.190;4.440;2022-08-03T02:00:38;101484.94;;;20.93;87.64
69318;BME280;56457;52.190;4.440;2022-08-03T02:01:40;101492.06;;;20.92;86.81
69318;BME280;56457;52.190;4.440;2022-08-03T02:02:41;101491.09;;;20.95;87.10
69318;BME280;56457;52.190;4.440;2022-08-03T02:03:44;101484.81;;;20.96;87.08
69318;BME280;56457;52.190;4.440;2022-08-03T02:04:46;101486.63;;;20.95;87.03
69318;BME280;56457;52.190;4.440;2022-08-03T02:05:48;101485.69;;;20.96;87.06
69318;BME280;56457;52.190;4.440;2022-08-03T02:06:51;101486.56;;;20.97;86.65
69318;BME280;56457;52.190;4.440;2022-08-03T02:07:53;101490.22;;;20.94;86.35
69318;BME280;56457;52.190;4.440;2022-08-03T02:08:55;101487.56;;;20.94;86.87
69318;BME280;56457;52.190;4.440;2022-08-03T02:09:59;101482.25;;;20.93;87.00
69318;BME280;56457;52.190;4.440;2022-08-03T02:11:01;101485.88;;;20.92;87.01
69318;BME280;56457;52.190;4.440;2022-08-03T02:12:02;101478.88;;;20.89;86.93
69318;BME280;56457;52.190;4.440;2022-08-03T02:13:05;101480.75;;;20.87;87.16
69318;BME280;56457;52.190;4.440;2022-08-03T02:14:07;101482.66;;;20.84;87.12
69318;BME280;56457;52.190;4.440;2022-08-03T02:15:09;101486.19;;;20.84;87.31
69318;BME280;56457;52.190;4.440;2022-08-03T02:16:11;101479.97;;;20.84;87.07
69318;BME280;56457;52.190;4.440;2022-08-03T02:17:13;101476.63;;;20.79;87.42
69318;BME280;56457;52.190;4.440;2022-08-03T02:18:14;101476.69;;;20.77;87.41
69318;BME280;56457;52.190;4.440;2022-08-03T02:19:16;101474.09;;;20.76;87.08
69318;BME280;56457;52.190;4.440;2022-08-03T02:20:17;101481.22;;;20.75;87.83
69318;BME280;56457;52.190;4.440;2022-08-03T02:21:18;101478.66;;;20.72;87.71
69318;BME280;56457;52.190;4.440;2022-08-03T02:22:20;101473.34;;;20.72;87.79
69318;BME280;56457;52.190;4.440;2022-08-03T02:23:22;101482.13;;;20.74;87.69
69318;BME280;56457;52.190;4.440;2022-08-03T02:24:22;101479.53;;;20.73;87.44
69318;BME280;56457;52.190;4.440;2022-08-03T02:25:23;101477.00;;;20.69;88.14
69318;BME280;56457;52.190;4.440;2022-08-03T02:26:27;101476.16;;;20.69;88.14
69318;BME280;56457;52.190;4.440;2022-08-03T02:27:28;101478.81;;;20.69;87.79
69318;BME280;56457;52.190;4.440;2022-08-03T02:28:35;101469.88;;;20.70;87.77
69318;BME280;56457;52.190;4.440;2022-08-03T02:29:38;101480.66;;;20.67;88.00
69318;BME280;56457;52.190;4.440;2022-08-03T02:30:42;101478.13;;;20.64;87.86
69318;BME280;56457;52.190;4.440;2022-08-03T02:31:45;101472.78;;;20.64;88.46
69318;BME280;56457;52.190;4.440;2022-08-03T02:32:53;101475.38;;;20.65;88.01
69318;BME280;56457;52.190;4.440;2022-08-03T02:34:00;101475.53;;;20.62;88.06
69318;BME280;56457;52.190;4.440;2022-08-03T02:35:05;101470.19;;;20.62;88.02
69318;BME280;56457;52.190;4.440;2022-08-03T02:36:06;101469.25;;;20.63;88.41
69318;BME280;56457;52.190;4.440;2022-08-03T02:37:09;101471.06;;;20.63;87.84
69318;BME280;56457;52.190;4.440;2022-08-03T02:38:11;101475.44;;;20.64;88.15
69318;BME280;56457;52.190;4.440;2022-08-03T02:39:16;101467.56;;;20.61;87.90
69318;BME280;56457;52.190;4.440;2022-08-03T02:40:19;101474.75;;;20.59;88.17
69318;BME280;56457;52.190;4.440;2022-08-03T02:41:24;101477.53;;;20.56;88.25
69318;BME280;56457;52.190;4.440;2022-08-03T02:42:28;101475.00;;;20.53;87.90
69318;BME280;56457;52.190;4.440;2022-08-03T02:43:31;101473.19;;;20.53;88.03
69318;BME280;56457;52.190;4.440;2022-08-03T02:44:34;101473.13;;;20.55;88.11
69318;BME280;56457;52.190;4.440;2022-08-03T02:45:43;101476.66;;;20.55;88.34
69318;BME280;56457;52.190;4.440;2022-08-03T02:46:45;101472.25;;;20.54;87.96
69318;BME280;56457;52.190;4.440;2022-08-03T02:47:48;101465.13;;;20.55;87.91
69318;BME280;56457;52.190;4.440;2022-08-03T02:48:52;101467.81;;;20.55;88.38
69318;BME280;56457;52.190;4.440;2022-08-03T02:49:56;101472.25;;;20.54;88.32
69318;BME280;56457;52.190;4.440;2022-08-03T02:50:58;101464.19;;;20.56;88.06
69318;BME280;56457;52.190;4.440;2022-08-03T02:52:02;101468.72;;;20.54;88.26
69318;BME280;56457;52.190;4.440;2022-08-03T02:53:05;101458.00;;;20.55;87.93
69318;BME280;56457;52.190;4.440;2022-08-03T02:54:07;101459.78;;;20.56;88.08
69318;BME280;56457;52.190;4.440;2022-08-03T02:55:09;101462.47;;;20.55;88.27
69318;BME280;56457;52.190;4.440;2022-08-03T02:56:12;101468.72;;;20.54;88.17
69318;BME280;56457;52.190;4.440;2022-08-03T02:57:13;101462.59;;;20.52;88.12
69318;BME280;56457;52.190;4.440;2022-08-03T02:58:17;101460.00;;;20.50;88.20
69318;BME280;56457;52.190;4.440;2022-08-03T02:59:20;101459.16;;;20.50;88.00
69318;BME280;56457;52.190;4.440;2022-08-03T03:00:22;101462.72;;;20.49;88.06
69318;BME280;56457;52.190;4.440;2022-08-03T03:01:24;101453.25;;;20.40;88.10
69318;BME280;56457;52.190;4.440;2022-08-03T03:02:26;101459.38;;;20.42;88.58
69318;BME280;56457;52.190;4.440;2022-08-03T03:03:27;101465.59;;;20.42;88.45
69318;BME280;56457;52.190;4.440;2022-08-03T03:04:29;101463.78;;;20.43;88.47
69318;BME280;56457;52.190;4.440;2022-08-03T03:05:30;101454.03;;;20.43;88.10
69318;BME280;56457;52.190;4.440;2022-08-03T03:06:31;101460.13;;;20.47;88.26
69318;BME280;56457;52.190;4.440;2022-08-03T03:07:32;101457.44;;;20.47;88.45
69318;BME280;56457;52.190;4.440;2022-08-03T03:08:33;101460.91;;;20.49;88.03
69318;BME280;56457;52.190;4.440;2022-08-03T03:09:34;101466.31;;;20.48;88.10
69318;BME280;56457;52.190;4.440;2022-08-03T03:10:36;101453.81;;;20.50;88.39
69318;BME280;56457;52.190;4.440;2022-08-03T03:11:37;101466.31;;;20.48;88.37
69318;BME280;56457;52.190;4.440;2022-08-03T03:12:40;101461.09;;;20.44;88.66
69318;BME280;56457;52.190;4.440;2022-08-03T03:13:42;101455.72;;;20.46;88.66
69318;BME280;56457;52.190;4.440;2022-08-03T03:14:44;101454.88;;;20.44;88.55
69318;BME280;56457;52.190;4.440;2022-08-03T03:15:46;101459.25;;;20.47;88.41
69318;BME280;56457;52.190;4.440;2022-08-03T03:16:47;101462.78;;;20.47;88.37
69318;BME280;56457;52.190;4.440;2022-08-03T03:17:48;101461.09;;;20.44;88.55
69318;BME280;56457;52.190;4.440;2022-08-03T03:18:49;101472.63;;;20.45;88.53
69318;BME280;56457;52.190;4.440;2022-08-03T03:19:50;101462.88;;;20.44;88.14
69318;BME280;56457;52.190;4.440;2022-08-03T03:20:51;101465.66;;;20.41;88.53
69318;BME280;56457;52.190;4.440;2022-08-03T03:21:52;101462.25;;;20.37;88.47
69318;BME280;56457;52.190;4.440;2022-08-03T03:22:55;101460.50;;;20.36;88.48
69318;BME280;56457;52.190;4.440;2022-08-03T03:23:58;101464.03;;;20.37;88.59
69318;BME280;56457;52.190;4.440;2022-08-03T03:24:59;101464.03;;;20.37;88.84
69318;BME280;56457;52.190;4.440;2022-08-03T03:26:00;101465.03;;;20.34;88.39
69318;BME280;56457;52.190;4.440;2022-08-03T03:27:02;101463.34;;;20.32;88.69
69318;BME280;56457;52.190;4.440;2022-08-03T03:28:03;101460.72;;;20.30;88.77
69318;BME280;56457;52.190;4.440;2022-08-03T03:29:04;101469.47;;;20.34;88.70
69318;BME280;56457;52.190;4.440;2022-08-03T03:30:06;101469.47;;;20.34;88.50
69318;BME280;56457;52.190;4.440;2022-08-03T03:31:07;101463.34;;;20.32;88.87
69318;BME280;56457;52.190;4.440;2022-08-03T03:32:08;101466.88;;;20.32;88.57
69318;BME280;56457;52.190;4.440;2022-08-03T03:33:09;101466.03;;;20.32;88.76
69318;BME280;56457;52.190;4.440;2022-08-03T03:34:10;101466.06;;;20.30;88.74
69318;BME280;56457;52.190;4.440;2022-08-03T03:35:11;101461.72;;;20.28;88.76
69318;BME280;56457;52.190;4.440;2022-08-03T03:36:12;101467.13;;;20.26;88.75
69318;BME280;56457;52.190;4.440;2022-08-03T03:37:13;101467.06;;;20.28;88.48
69318;BME280;56457;52.190;4.440;2022-08-03T03:38:13;101465.25;;;20.28;88.72
69318;BME280;56457;52.190;4.440;2022-08-03T03:39:14;101468.91;;;20.26;88.71
69318;BME280;56457;52.190;4.440;2022-08-03T03:40:14;101464.50;;;20.25;89.10
69318;BME280;56457;52.190;4.440;2022-08-03T03:41:15;101464.56;;;20.23;88.86
69318;BME280;56457;52.190;4.440;2022-08-03T03:42:15;101458.53;;;20.18;89.47
69318;BME280;56457;52.190;4.440;2022-08-03T03:43:15;101460.28;;;20.19;89.08
69318;BME280;56457;52.190;4.440;2022-08-03T03:44:17;101462.97;;;20.19;89.28
69318;BME280;56457;52.190;4.440;2022-08-03T03:45:19;101471.69;;;20.23;89.29
69318;BME280;56457;52.190;4.440;2022-08-03T03:46:21;101469.00;;;20.23;89.43
69318;BME280;56457;52.190;4.440;2022-08-03T03:47:22;101462.81;;;20.22;89.31
69318;BME280;56457;52.190;4.440;2022-08-03T03:48:24;101462.88;;;20.21;88.89
69318;BME280;56457;52.190;4.440;2022-08-03T03:49:25;101462.88;;;20.21;89.33
69318;BME280;56457;52.190;4.440;2022-08-03T03:50:26;101469.19;;;20.18;89.52
69318;BME280;56457;52.190;4.440;2022-08-03T03:51:27;101465.66;;;20.17;89.50
69318;BME280;56457;52.190;4.440;2022-08-03T03:52:27;101471.03;;;20.16;89.54
69318;BME280;56457;52.190;4.440;2022-08-03T03:53:28;101465.72;;;20.16;89.52
69318;BME280;56457;52.190;4.440;2022-08-03T03:54:41;101459.47;;;20.17;89.35
69318;BME280;56457;52.190;4.440;2022-08-03T03:55:42;101465.72;;;20.16;89.75
69318;BME280;56457;52.190;4.440;2022-08-03T03:56:43;101463.06;;;20.16;89.62
69318;BME280;56457;52.190;4.440;2022-08-03T03:57:44;101457.03;;;20.11;89.87
69318;BME280;56457;52.190;4.440;2022-08-03T03:58:44;101465.84;;;20.13;89.72
69318;BME280;56457;52.190;4.440;2022-08-03T03:59:45;101456.00;;;20.15;89.69
69318;BME280;56457;52.190;4.440;2022-08-03T04:00:45;101461.31;;;20.15;89.88
69318;BME280;56457;52.190;4.440;2022-08-03T04:01:46;101464.78;;;20.17;89.82
69318;BME280;56457;52.190;4.440;2022-08-03T04:02:47;101457.63;;;20.19;90.11
69318;BME280;56457;52.190;4.440;2022-08-03T04:03:47;101457.66;;;20.17;89.99
69318;BME280;56457;52.190;4.440;2022-08-03T04:04:48;101458.66;;;20.15;89.90
69318;BME280;56457;52.190;4.440;2022-08-03T04:06:07;101459.47;;;20.17;89.70
69318;BME280;56457;52.190;4.440;2022-08-03T04:07:26;101462.13;;;20.17;90.00
69318;BME280;56457;52.190;4.440;2022-08-03T04:08:45;101462.13;;;20.17;90.03
69318;BME280;56457;52.190;4.440;2022-08-03T04:10:19;101463.19;;;20.13;90.03
69318;BME280;56457;52.190;4.440;2022-08-03T04:11:52;101463.22;;;20.11;89.92
69318;BME280;56457;52.190;4.440;2022-08-03T04:12:55;101471.19;;;20.13;89.78
69318;BME280;56457;52.190;4.440;2022-08-03T04:14:04;101468.44;;;20.14;90.13
69318;BME280;56457;52.190;4.440;2022-08-03T04:15:06;101467.50;;;20.15;90.08
69318;BME280;56457;52.190;4.440;2022-08-03T04:16:10;101466.59;;;20.16;89.92
69318;BME280;56457;52.190;4.440;2022-08-03T04:17:11;101466.53;;;20.18;90.07
69318;BME280;56457;52.190;4.440;2022-08-03T04:18:13;101468.38;;;20.16;90.18
69318;BME280;56457;52.190;4.440;2022-08-03T04:19:23;101476.38;;;20.16;90.32
69318;BME280;56457;52.190;4.440;2022-08-03T04:20:29;101466.66;;;20.15;90.08
69318;BME280;56457;52.190;4.440;2022-08-03T04:21:32;101471.91;;;20.16;89.95
69318;BME280;56457;52.190;4.440;2022-08-03T04:22:34;101470.09;;;20.19;90.11
69318;BME280;56457;52.190;4.440;2022-08-03T04:23:39;101470.94;;;20.19;90.13
69318;BME280;56457;52.190;4.440;2022-08-03T04:24:44;101477.00;;;20.23;90.02
69318;BME280;56457;52.190;4.440;2022-08-03T04:25:48;101471.69;;;20.23;89.83
69318;BME280;56457;52.190;4.440;2022-08-03T04:26:50;101474.28;;;20.24;89.70
69318;BME280;56457;52.190;4.440;2022-08-03T04:27:52;101476.16;;;20.22;89.92
69318;BME280;56457;52.190;4.440;2022-08-03T04:28:54;101473.53;;;20.21;90.16
69318;BME280;56457;52.190;4.440;2022-08-03T04:29:56;101470.88;;;20.21;89.76
69318;BME280;56457;52.190;4.440;2022-08-03T04:30:59;101479.75;;;20.21;90.24
69318;BME280;56457;52.190;4.440;2022-08-03T04:32:00;101476.06;;;20.24;90.09
69318;BME280;56457;52.190;4.440;2022-08-03T04:33:01;101476.16;;;20.22;89.80
69318;BME280;56457;52.190;4.440;2022-08-03T04:34:02;101472.53;;;20.23;90.08
69318;BME280;56457;52.190;4.440;2022-08-03T04:35:03;101474.28;;;20.24;90.10
69318;BME280;56457;52.190;4.440;2022-08-03T04:36:08;101479.56;;;20.26;89.57
69318;BME280;56457;52.190;4.440;2022-08-03T04:37:11;101475.16;;;20.25;89.70
69318;BME280;56457;52.190;4.440;2022-08-03T04:38:14;101480.47;;;20.25;90.08
69318;BME280;56457;52.190;4.440;2022-08-03T04:39:22;101479.69;;;20.23;90.14
69318;BME280;56457;52.190;4.440;2022-08-03T04:40:38;101482.28;;;20.24;89.82
69318;BME280;56457;52.190;4.440;2022-08-03T04:41:42;101483.97;;;20.27;90.03
69318;BME280;56457;52.190;4.440;2022-08-03T04:42:43;101483.09;;;20.26;90.12
69318;BME280;56457;52.190;4.440;2022-08-03T04:43:44;101481.31;;;20.27;89.96
69318;BME280;56457;52.190;4.440;2022-08-03T04:44:45;101477.56;;;20.31;89.95
69318;BME280;56457;52.190;4.440;2022-08-03T04:45:48;101485.56;;;20.31;89.94
69318;BME280;56457;52.190;4.440;2022-08-03T04:46:50;101484.72;;;20.30;90.05
69318;BME280;56457;52.190;4.440;2022-08-03T04:47:52;101490.00;;;20.32;90.07
69318;BME280;56457;52.190;4.440;2022-08-03T04:48:54;101487.28;;;20.33;89.92
69318;BME280;56457;52.190;4.440;2022-08-03T04:49:55;101482.00;;;20.32;89.66
69318;BME280;56457;52.190;4.440;2022-08-03T04:50:55;101490.03;;;20.30;90.05
69318;BME280;56457;52.190;4.440;2022-08-03T04:51:57;101491.78;;;20.31;90.09
69318;BME280;56457;52.190;4.440;2022-08-03T04:52:58;101489.00;;;20.34;89.98
69318;BME280;56457;52.190;4.440;2022-08-03T04:53:58;101488.13;;;20.34;89.85
69318;BME280;56457;52.190;4.440;2022-08-03T04:54:59;101490.03;;;20.30;89.95
69318;BME280;56457;52.190;4.440;2022-08-03T04:56:05;101488.19;;;20.32;89.92
69318;BME280;56457;52.190;4.440;2022-08-03T04:57:06;101492.47;;;20.36;90.33
69318;BME280;56457;52.190;4.440;2022-08-03T04:58:06;101496.00;;;20.37;89.96
69318;BME280;56457;52.190;4.440;2022-08-03T04:59:08;101491.66;;;20.34;89.81
69318;BME280;56457;52.190;4.440;2022-08-03T05:00:09;101496.94;;;20.36;90.12
69318;BME280;56457;52.190;4.440;2022-08-03T05:01:10;101500.47;;;20.36;90.11
69318;BME280;56457;52.190;4.440;2022-08-03T05:02:10;101501.22;;;20.40;90.23
69318;BME280;56457;52.190;4.440;2022-08-03T05:03:10;101501.16;;;20.41;89.99
69318;BME280;56457;52.190;4.440;2022-08-03T05:04:11;101507.31;;;20.43;90.00
69318;BME280;56457;52.190;4.440;2022-08-03T05:05:11;101501.06;;;20.44;89.36
69318;BME280;56457;52.190;4.440;2022-08-03T05:06:11;101504.66;;;20.43;90.11
69318;BME280;56457;52.190;4.440;2022-08-03T05:07:13;101502.84;;;20.44;90.03
69318;BME280;56457;52.190;4.440;2022-08-03T05:08:13;101504.63;;;20.45;89.87
69318;BME280;56457;52.190;4.440;2022-08-03T05:09:14;101501.03;;;20.46;89.67
69318;BME280;56457;52.190;4.440;2022-08-03T05:10:14;101504.66;;;20.43;89.77
69318;BME280;56457;52.190;4.440;2022-08-03T05:11:16;101501.88;;;20.47;90.21
69318;BME280;56457;52.190;4.440;2022-08-03T05:12:16;101507.31;;;20.43;89.73
69318;BME280;56457;52.190;4.440;2022-08-03T05:13:17;101498.50;;;20.41;90.14
69318;BME280;56457;52.190;4.440;2022-08-03T05:14:17;101505.56;;;20.42;89.97
69318;BME280;56457;52.190;4.440;2022-08-03T05:15:17;101509.09;;;20.43;90.37
69318;BME280;56457;52.190;4.440;2022-08-03T05:16:18;101503.69;;;20.46;90.02
69318;BME280;56457;52.190;4.440;2022-08-03T05:17:18;101506.22;;;20.49;89.94
69318;BME280;56457;52.190;4.440;2022-08-03T05:18:18;101503.63;;;20.48;90.47
69318;BME280;56457;52.190;4.440;2022-08-03T05:19:19;101499.16;;;20.48;90.03
69318;BME280;56457;52.190;4.440;2022-08-03T05:20:19;101502.53;;;20.53;90.44
69318;BME280;56457;52.190;4.440;2022-08-03T05:21:20;101505.97;;;20.55;90.20
69318;BME280;56457;52.190;4.440;2022-08-03T05:22:21;101506.75;;;20.59;90.33
69318;BME280;56457;52.190;4.440;2022-08-03T05:23:22;101503.28;;;20.57;90.27
69318;BME280;56457;52.190;4.440;2022-08-03T05:24:22;101509.34;;;20.60;90.20
69318;BME280;56457;52.190;4.440;2022-08-03T05:25:23;101504.78;;;20.64;89.94
69318;BME280;56457;52.190;4.440;2022-08-03T05:26:24;101505.47;;;20.69;89.71
69318;BME280;56457;52.190;4.440;2022-08-03T05:27:25;101510.56;;;20.75;89.52
69318;BME280;56457;52.190;4.440;2022-08-03T05:28:25;101513.09;;;20.78;89.43
69318;BME280;56457;52.190;4.440;2022-08-03T05:29:25;101504.84;;;20.84;89.72
69318;BME280;56457;52.190;4.440;2022-08-03T05:30:26;101510.94;;;20.88;89.34
69318;BME280;56457;52.190;4.440;2022-08-03T05:31:26;101508.13;;;20.91;89.10
69318;BME280;56457;52.190;4.440;2022-08-03T05:32:27;101509.94;;;20.90;89.07
69318;BME280;56457;52.190;4.440;2022-08-03T05:33:27;101508.91;;;20.94;88.96
69318;BME280;56457;52.190;4.440;2022-08-03T05:34:28;101511.41;;;20.97;88.81
69318;BME280;56457;52.190;4.440;2022-08-03T05:35:29;101502.31;;;21.03;88.56
69318;BME280;56457;52.190;4.440;2022-08-03T05:36:29;101509.25;;;21.07;88.88